createdAt,value
2022-11-30T00:01:23.751Z,41.98
2022-11-30T00:03:57.951Z,42.62
2022-11-30T00:06:26.025Z,42.28
2022-11-30T00:08:55.843Z,41.15
2022-11-30T00:11:25.878Z,41.11
2022-11-30T00:13:54.114Z,41.65
2022-11-30T00:16:22.137Z,41.30
2022-11-30T00:18:50.538Z,40.88
2022-11-30T00:21:18.723Z,41.33
2022-11-30T00:23:48.152Z,40.97
2022-11-30T00:26:18.284Z,40.80
2022-11-30T00:28:48.485Z,40.78
2022-11-30T00:31:18.549Z,40.25
2022-11-30T00:33:47.163Z,40.31
2022-11-30T00:36:17.806Z,39.51
2022-11-30T00:38:46.424Z,40.00
2022-11-30T00:41:15.143Z,39.24
2022-11-30T00:43:43.191Z,40.13
2022-11-30T00:46:11.419Z,40.80
2022-11-30T00:48:40.435Z,40.30
2022-11-30T00:51:10.781Z,40.30
2022-11-30T00:53:40.033Z,40.11
2022-11-30T00:56:08.996Z,39.08
2022-11-30T00:58:36.895Z,39.48
2022-11-30T01:01:04.957Z,39.22
2022-11-30T01:03:33.704Z,40.22
2022-11-30T01:06:10.905Z,39.46
2022-11-30T01:08:38.825Z,39.83
2022-11-30T01:11:26.481Z,39.72
2022-11-30T01:13:55.804Z,38.99
2022-11-30T01:16:30.502Z,38.62
2022-11-30T01:18:58.531Z,37.98
2022-11-30T01:21:28.709Z,37.88
2022-11-30T01:23:56.822Z,38.51
2022-11-30T01:26:24.930Z,37.65
2022-11-30T01:28:54.578Z,37.89
2022-11-30T01:31:24.254Z,38.10
2022-11-30T01:33:54.165Z,37.58
2022-11-30T01:36:28.506Z,38.60
2022-11-30T01:38:57.972Z,38.12
2022-11-30T01:41:32.354Z,37.60
2022-11-30T01:44:06.360Z,37.56
2022-11-30T01:46:49.754Z,37.68
2022-11-30T01:49:25.486Z,39.55
2022-11-30T01:52:03.448Z,39.94
2022-11-30T01:54:47.696Z,40.30
2022-11-30T01:57:22.912Z,39.03
2022-11-30T01:59:53.538Z,41.15
2022-11-30T02:02:31.040Z,42.10
2022-11-30T02:04:59.193Z,41.39
2022-11-30T02:07:27.611Z,41.40
2022-11-30T02:09:55.619Z,42.14
2022-11-30T02:12:40.718Z,41.85
2022-11-30T02:15:12.651Z,42.13
2022-11-30T02:18:13.799Z,42.27
2022-11-30T02:20:53.536Z,42.13
2022-11-30T02:23:45.680Z,42.79
2022-11-30T02:26:22.292Z,40.84
2022-11-30T02:28:59.349Z,40.92
2022-11-30T02:31:52.329Z,41.27
2022-11-30T02:34:23.872Z,41.74
2022-11-30T02:36:54.352Z,42.08
2022-11-30T02:39:23.456Z,43.12
2022-11-30T02:41:51.381Z,42.27
2022-11-30T02:44:21.973Z,40.66
2022-11-30T02:46:53.407Z,40.81
2022-11-30T02:49:39.897Z,41.09
2022-11-30T02:52:10.686Z,41.71
2022-11-30T02:54:38.727Z,41.79
2022-11-30T02:57:07.005Z,41.13
2022-11-30T02:59:35.445Z,40.63
2022-11-30T03:02:03.418Z,41.27
2022-11-30T03:04:31.318Z,40.88
2022-11-30T03:06:59.307Z,41.62
2022-11-30T03:09:27.438Z,40.19
2022-11-30T03:11:55.351Z,39.70
2022-11-30T03:14:23.255Z,39.75
2022-11-30T03:16:51.158Z,39.51
2022-11-30T03:19:19.065Z,39.69
2022-11-30T03:21:47.019Z,38.69
2022-11-30T03:24:14.960Z,39.66
2022-11-30T03:26:43.028Z,38.58
2022-11-30T03:29:10.893Z,39.45
2022-11-30T03:31:38.846Z,38.71
2022-11-30T03:34:06.708Z,38.30
2022-11-30T03:36:34.611Z,38.16
2022-11-30T03:39:02.747Z,37.91
2022-11-30T03:41:30.838Z,37.42
2022-11-30T03:43:58.709Z,37.57
2022-11-30T03:46:27.622Z,37.77
2022-11-30T03:48:55.630Z,37.97
2022-11-30T03:51:23.665Z,39.03
2022-11-30T03:53:51.557Z,38.73
2022-11-30T03:56:20.514Z,39.03
2022-11-30T03:58:48.424Z,38.55
2022-11-30T04:01:19.360Z,38.62
2022-11-30T04:03:49.420Z,39.31
2022-11-30T04:06:17.940Z,42.71
2022-11-30T04:08:46.067Z,43.58
2022-11-30T04:11:14.210Z,44.28
2022-11-30T04:13:42.733Z,43.75
2022-11-30T04:16:10.657Z,42.19
2022-11-30T04:18:39.527Z,43.25
2022-11-30T04:21:08.398Z,43.52
2022-11-30T04:23:39.090Z,44.84
2022-11-30T04:26:11.568Z,43.47
2022-11-30T04:28:39.800Z,43.99
2022-11-30T04:31:08.703Z,45.00
2022-11-30T04:33:36.997Z,44.28
2022-11-30T04:36:06.886Z,44.43
2022-11-30T04:38:36.705Z,44.83
2022-11-30T04:41:08.921Z,44.25
2022-11-30T04:43:37.214Z,44.80
2022-11-30T04:46:06.225Z,44.48
2022-11-30T04:48:34.522Z,45.30
2022-11-30T04:51:08.081Z,45.75
2022-11-30T04:53:37.613Z,44.71
2022-11-30T04:56:07.483Z,45.24
2022-11-30T04:58:36.293Z,43.23
2022-11-30T05:01:04.376Z,44.24
2022-11-30T05:03:32.266Z,45.02
2022-11-30T05:06:00.186Z,44.62
2022-11-30T05:08:28.544Z,46.49
2022-11-30T05:10:56.677Z,47.22
2022-11-30T05:13:26.405Z,48.33
2022-11-30T05:15:54.428Z,49.57
2022-11-30T05:18:22.926Z,50.41
2022-11-30T05:20:52.886Z,51.35
2022-11-30T05:23:22.517Z,52.31
2022-11-30T05:25:50.635Z,55.21
2022-11-30T05:28:19.095Z,54.73
2022-11-30T05:30:47.234Z,53.59
2022-11-30T05:33:15.188Z,53.59
2022-11-30T05:35:43.433Z,53.79
2022-11-30T05:38:11.415Z,54.47
2022-11-30T05:40:39.345Z,53.40
2022-11-30T05:43:07.245Z,51.38
2022-11-30T05:45:35.160Z,49.08
2022-11-30T05:48:03.047Z,48.27
2022-11-30T05:50:31.372Z,48.43
2022-11-30T05:53:00.876Z,47.37
2022-11-30T05:55:29.889Z,47.21
2022-11-30T05:57:58.070Z,47.23
2022-11-30T06:00:26.004Z,48.24
2022-11-30T06:02:58.372Z,47.72
2022-11-30T06:05:26.960Z,47.00
2022-11-30T06:07:55.644Z,47.90
2022-11-30T06:10:25.817Z,48.05
2022-11-30T06:12:53.793Z,47.43
2022-11-30T06:15:22.592Z,47.92
2022-11-30T06:17:50.529Z,47.95
2022-11-30T06:20:18.419Z,47.25
2022-11-30T06:22:46.973Z,46.96
2022-11-30T06:25:15.165Z,47.88
2022-11-30T06:27:43.686Z,47.86
2022-11-30T06:30:12.492Z,47.60
2022-11-30T06:32:40.518Z,47.62
2022-11-30T06:35:08.666Z,46.74
2022-11-30T06:37:36.571Z,47.83
2022-11-30T06:40:07.239Z,47.51
2022-11-30T06:42:37.106Z,46.57
2022-11-30T06:45:06.901Z,44.92
2022-11-30T06:47:35.358Z,45.39
2022-11-30T06:50:03.936Z,45.83
2022-11-30T06:52:32.369Z,47.11
2022-11-30T06:55:00.680Z,47.07
2022-11-30T06:57:29.819Z,44.97
2022-11-30T06:59:58.069Z,46.28
2022-11-30T07:02:26.106Z,46.46
2022-11-30T07:04:54.057Z,47.26
2022-11-30T07:07:22.290Z,48.28
2022-11-30T07:09:51.105Z,48.93
2022-11-30T07:12:19.532Z,46.87
2022-11-30T07:14:48.006Z,48.65
2022-11-30T07:17:16.585Z,49.42
2022-11-30T07:19:44.704Z,48.33
2022-11-30T07:22:14.036Z,49.19
2022-11-30T07:25:00.444Z,48.89
2022-11-30T07:27:28.686Z,49.86
2022-11-30T07:29:56.850Z,48.98
2022-11-30T07:32:25.091Z,47.64
2022-11-30T07:34:53.118Z,47.70
2022-11-30T07:37:21.179Z,46.34
2022-11-30T07:39:49.685Z,47.10
2022-11-30T07:42:17.765Z,48.04
2022-11-30T07:44:45.869Z,49.02
2022-11-30T07:47:14.173Z,48.23
2022-11-30T07:49:42.097Z,50.19
2022-11-30T07:52:09.961Z,49.54
2022-11-30T07:54:38.001Z,48.03
2022-11-30T07:57:06.543Z,47.80
2022-11-30T07:59:34.526Z,47.05
2022-11-30T08:02:02.624Z,45.73
2022-11-30T08:04:31.132Z,44.98
2022-11-30T08:06:59.369Z,44.82
2022-11-30T08:09:27.297Z,46.67
2022-11-30T08:11:55.159Z,46.43
2022-11-30T08:14:23.365Z,47.01
2022-11-30T08:16:51.825Z,48.64
2022-11-30T08:19:20.607Z,46.72
2022-11-30T08:21:49.803Z,46.83
2022-11-30T08:24:17.932Z,46.44
2022-11-30T08:26:45.984Z,45.94
2022-11-30T08:29:13.913Z,48.11
2022-11-30T08:31:41.840Z,47.64
2022-11-30T08:34:11.880Z,48.35
2022-11-30T08:36:41.081Z,47.02
2022-11-30T08:39:12.430Z,48.57
2022-11-30T08:41:40.465Z,48.02
2022-11-30T08:44:08.733Z,51.61
2022-11-30T08:46:53.450Z,48.02
2022-11-30T08:52:18.955Z,44.09
2022-11-30T08:54:48.563Z,42.43
2022-11-30T08:57:18.792Z,43.85
2022-11-30T08:59:47.616Z,45.02
2022-11-30T09:02:17.922Z,43.82
2022-11-30T09:04:49.211Z,42.99
2022-11-30T09:07:17.738Z,43.11
2022-11-30T09:09:45.963Z,43.98
2022-11-30T09:12:13.872Z,43.57
2022-11-30T09:14:42.138Z,44.43
2022-11-30T09:17:10.002Z,42.46
2022-11-30T09:19:38.214Z,42.92
2022-11-30T09:22:06.458Z,43.84
2022-11-30T09:24:34.510Z,45.07
2022-11-30T09:27:02.566Z,45.24
2022-11-30T09:29:30.593Z,44.62
2022-11-30T09:31:58.721Z,44.43
2022-11-30T09:34:26.613Z,44.70
2022-11-30T09:36:54.829Z,46.08
2022-11-30T09:39:23.164Z,46.18
2022-11-30T09:42:00.299Z,44.46
2022-11-30T09:44:56.989Z,43.89
2022-11-30T09:47:46.091Z,44.60
2022-11-30T09:50:16.710Z,46.01
2022-11-30T09:52:52.489Z,46.56
2022-11-30T09:55:49.555Z,47.45
2022-11-30T09:58:39.775Z,49.52
2022-11-30T10:01:17.560Z,50.35
2022-11-30T10:03:46.565Z,52.08
2022-11-30T10:06:37.628Z,52.00
2022-11-30T10:09:17.832Z,51.51
2022-11-30T10:11:52.447Z,52.42
2022-11-30T10:14:38.132Z,51.57
2022-11-30T10:17:25.771Z,49.25
2022-11-30T10:19:59.961Z,49.86
2022-11-30T10:22:46.522Z,50.82
2022-11-30T10:25:33.392Z,49.19
2022-11-30T10:28:38.650Z,49.20
2022-11-30T10:31:02.201Z,48.10
2022-11-30T10:33:38.819Z,48.30
2022-11-30T10:36:14.068Z,47.57
2022-11-30T10:38:50.100Z,48.76
2022-11-30T10:41:28.884Z,49.15
2022-11-30T10:44:16.189Z,47.36
2022-11-30T10:47:05.637Z,47.63
2022-11-30T10:49:37.619Z,46.41
2022-11-30T10:52:09.102Z,45.76
2022-11-30T10:54:37.364Z,44.54
2022-11-30T10:57:07.531Z,45.36
2022-11-30T10:59:54.530Z,45.72
2022-11-30T11:02:39.662Z,45.35
2022-11-30T11:05:19.659Z,44.88
2022-11-30T11:08:18.994Z,45.42
2022-11-30T11:10:52.237Z,45.36
2022-11-30T11:13:35.406Z,45.12
2022-11-30T11:16:05.106Z,45.51
2022-11-30T11:18:35.015Z,45.40
2022-11-30T11:21:07.396Z,43.31
2022-11-30T11:23:35.414Z,44.81
2022-11-30T11:26:04.489Z,45.09
2022-11-30T11:28:35.573Z,46.84
2022-11-30T11:31:22.942Z,45.96
2022-11-30T11:33:54.158Z,46.90
2022-11-30T11:36:32.059Z,47.86
2022-11-30T11:39:01.366Z,47.48
2022-11-30T11:41:35.269Z,46.52
2022-11-30T11:44:08.899Z,47.43
2022-11-30T11:47:03.502Z,45.22
2022-11-30T11:49:36.723Z,45.55
2022-11-30T11:52:13.655Z,46.28
2022-11-30T11:54:51.632Z,47.09
2022-11-30T11:57:25.187Z,46.94
2022-11-30T12:00:15.893Z,47.36
2022-11-30T12:03:43.071Z,47.49
2022-11-30T12:06:15.024Z,46.34
2022-11-30T12:08:55.136Z,47.34
2022-11-30T12:11:37.199Z,45.44
2022-11-30T12:14:13.049Z,47.96
2022-11-30T12:16:40.967Z,46.31
2022-11-30T12:19:16.602Z,48.11
2022-11-30T12:21:53.743Z,48.50
2022-11-30T12:24:21.619Z,48.63
2022-11-30T12:27:05.658Z,48.80
2022-11-30T12:30:12.585Z,48.15
2022-11-30T12:33:07.467Z,48.22
2022-11-30T12:35:59.335Z,47.41
2022-11-30T12:38:48.767Z,48.54
2022-11-30T12:41:40.909Z,47.43
2022-11-30T12:44:30.206Z,46.92
2022-11-30T12:47:23.184Z,47.55
2022-11-30T12:49:54.872Z,48.57
2022-11-30T12:52:29.758Z,49.27
2022-11-30T12:55:00.536Z,49.07
2022-11-30T12:57:38.538Z,48.57
2022-11-30T13:00:21.572Z,49.04
2022-11-30T13:03:07.867Z,50.27
2022-11-30T13:05:41.299Z,50.72
2022-11-30T13:08:43.270Z,48.69
2022-11-30T13:11:17.587Z,47.21
2022-11-30T13:13:54.806Z,46.65
2022-11-30T13:16:24.953Z,45.19
2022-11-30T13:18:59.679Z,42.19
2022-11-30T13:21:40.588Z,42.81
2022-11-30T13:24:16.344Z,42.74
2022-11-30T13:26:46.198Z,42.63
2022-11-30T13:29:51.813Z,43.00
2022-11-30T13:32:56.299Z,43.64
2022-11-30T13:35:29.672Z,45.08
2022-11-30T13:38:36.219Z,44.40
2022-11-30T13:41:07.969Z,44.24
2022-11-30T13:43:53.757Z,45.83
2022-11-30T13:46:25.557Z,46.59
2022-11-30T13:49:23.984Z,49.41
2022-11-30T13:52:13.599Z,50.98
2022-11-30T13:54:50.794Z,51.04
2022-11-30T13:57:38.932Z,47.81
2022-11-30T14:00:36.374Z,47.72
2022-11-30T14:03:22.303Z,49.16
2022-11-30T14:05:54.189Z,54.09
2022-11-30T14:08:22.046Z,50.15
2022-11-30T14:10:55.591Z,50.30
2022-11-30T14:13:29.765Z,48.16
2022-11-30T14:16:00.741Z,47.57
2022-11-30T14:18:40.402Z,48.39
2022-11-30T14:21:22.201Z,52.31
2022-11-30T14:24:00.045Z,52.80
2022-11-30T14:26:35.564Z,53.74
2022-11-30T14:29:12.580Z,54.92
2022-11-30T14:32:08.571Z,58.98
2022-11-30T14:34:41.723Z,63.48
2022-11-30T14:37:23.455Z,61.77
2022-11-30T14:39:56.673Z,61.36
2022-11-30T14:42:27.534Z,57.38
2022-11-30T14:44:56.345Z,53.59
2022-11-30T14:47:29.901Z,52.67
2022-11-30T14:50:02.384Z,54.12
2022-11-30T14:52:50.857Z,55.50
2022-11-30T14:55:52.971Z,54.47
2022-11-30T14:58:44.973Z,54.55
2022-11-30T15:01:23.667Z,53.62
2022-11-30T15:03:54.721Z,52.62
2022-11-30T15:06:29.794Z,52.64
2022-11-30T15:09:01.224Z,51.98
2022-11-30T15:11:29.465Z,52.23
2022-11-30T15:14:07.962Z,52.80
2022-11-30T15:16:36.198Z,53.80
2022-11-30T15:19:36.473Z,50.30
2022-11-30T15:22:04.364Z,50.30
2022-11-30T15:24:32.296Z,48.33
2022-11-30T15:27:12.729Z,45.52
2022-11-30T15:29:47.894Z,42.70
2022-11-30T15:32:20.343Z,45.39
2022-11-30T15:34:56.092Z,44.59
2022-11-30T15:37:50.687Z,44.23
2022-11-30T15:40:38.833Z,45.02
2022-11-30T15:43:23.972Z,43.35
2022-11-30T15:45:57.838Z,42.77
2022-11-30T15:48:35.220Z,43.23
2022-11-30T15:51:03.203Z,43.73
2022-11-30T15:53:48.377Z,44.27
2022-11-30T15:56:27.719Z,45.53
2022-11-30T15:59:12.062Z,45.48
2022-11-30T16:02:14.620Z,46.16
2022-11-30T16:04:57.829Z,44.52
2022-11-30T16:07:29.814Z,43.96
2022-11-30T16:10:15.885Z,45.13
2022-11-30T16:12:45.258Z,45.82
2022-11-30T16:15:48.095Z,46.04
2022-11-30T16:18:28.817Z,45.54
2022-11-30T16:20:59.778Z,45.29
2022-11-30T16:23:28.342Z,45.00
2022-11-30T16:25:56.469Z,44.59
2022-11-30T16:28:24.840Z,44.71
2022-11-30T16:30:59.399Z,45.82
2022-11-30T16:33:28.129Z,45.77
2022-11-30T16:36:12.082Z,48.31
2022-11-30T16:38:40.440Z,47.92
2022-11-30T16:41:18.527Z,46.87
2022-11-30T16:43:47.902Z,47.25
2022-11-30T16:46:19.611Z,47.31
2022-11-30T16:48:47.909Z,47.14
2022-11-30T16:51:21.672Z,46.85
2022-11-30T16:53:49.784Z,47.14
2022-11-30T16:56:18.436Z,48.28
2022-11-30T16:58:46.891Z,48.14
2022-11-30T17:01:36.506Z,47.69
2022-11-30T17:04:15.115Z,49.75
2022-11-30T17:06:45.841Z,47.83
2022-11-30T17:09:19.902Z,49.05
2022-11-30T17:11:50.636Z,49.27
2022-11-30T17:14:20.042Z,50.51
2022-11-30T17:16:48.039Z,50.90
2022-11-30T17:19:16.038Z,49.20
2022-11-30T17:21:44.775Z,49.49
2022-11-30T17:24:13.507Z,48.89
2022-11-30T17:26:41.461Z,48.59
2022-11-30T17:29:09.712Z,48.41
2022-11-30T17:31:37.624Z,49.19
2022-11-30T17:34:06.857Z,47.56
2022-11-30T17:36:34.825Z,48.24
2022-11-30T17:39:08.867Z,49.23
2022-11-30T17:41:36.917Z,50.57
2022-11-30T17:44:04.784Z,48.93
2022-11-30T17:46:32.879Z,49.49
2022-11-30T17:49:01.803Z,47.53
2022-11-30T17:51:30.661Z,48.60
2022-11-30T17:53:58.950Z,48.86
2022-11-30T17:56:26.854Z,48.53
2022-11-30T17:58:54.733Z,49.13
2022-11-30T18:01:25.424Z,50.01
2022-11-30T18:03:54.965Z,48.62
2022-11-30T18:06:23.133Z,49.10
2022-11-30T18:08:51.074Z,47.46
2022-11-30T18:11:21.434Z,45.92
2022-11-30T18:13:53.439Z,45.39
2022-11-30T18:16:26.859Z,44.92
2022-11-30T18:18:57.224Z,44.13
2022-11-30T18:21:27.850Z,46.33
2022-11-30T18:23:57.624Z,46.61
2022-11-30T18:26:26.986Z,45.74
2022-11-30T18:28:57.526Z,46.27
2022-11-30T18:31:27.879Z,45.98
2022-11-30T18:33:57.757Z,47.51
2022-11-30T18:36:25.991Z,48.55
2022-11-30T18:38:54.376Z,48.33
2022-11-30T18:41:22.440Z,48.50
2022-11-30T18:43:50.370Z,47.60
2022-11-30T18:46:18.361Z,47.86
2022-11-30T18:48:50.367Z,47.19
2022-11-30T18:51:24.644Z,47.57
2022-11-30T18:53:58.469Z,45.37
2022-11-30T18:56:29.100Z,47.24
2022-11-30T18:58:59.317Z,48.34
2022-11-30T19:01:28.645Z,49.51
2022-11-30T19:04:02.626Z,48.65
2022-11-30T19:06:33.197Z,48.46
2022-11-30T19:09:10.432Z,50.03
2022-11-30T19:11:41.308Z,47.66
2022-11-30T19:14:13.534Z,49.91
2022-11-30T19:16:41.574Z,48.43
2022-11-30T19:19:13.881Z,49.32
2022-11-30T19:21:47.658Z,49.62
2022-11-30T19:24:16.528Z,48.58
2022-11-30T19:26:44.616Z,47.86
2022-11-30T19:29:12.520Z,46.80
2022-11-30T19:31:40.770Z,46.04
2022-11-30T19:34:12.611Z,45.58
2022-11-30T19:36:41.863Z,43.56
2022-11-30T19:39:10.005Z,42.47
2022-11-30T19:41:38.486Z,41.81
2022-11-30T19:44:12.236Z,41.25
2022-11-30T19:46:41.212Z,39.83
2022-11-30T19:49:10.110Z,39.98
2022-11-30T19:51:38.065Z,38.46
2022-11-30T19:54:06.018Z,38.52
2022-11-30T19:56:38.937Z,39.01
2022-11-30T19:59:06.900Z,37.78
2022-11-30T20:01:35.418Z,38.36
2022-11-30T20:04:03.834Z,38.60
2022-11-30T20:06:34.496Z,38.05
2022-11-30T20:09:04.419Z,38.47
2022-11-30T20:11:32.973Z,38.26
2022-11-30T20:14:00.897Z,37.81
2022-11-30T20:16:29.711Z,38.38
2022-11-30T20:19:01.980Z,37.57
2022-11-30T20:21:33.094Z,37.40
2022-11-30T20:24:05.337Z,37.62
2022-11-30T20:26:39.878Z,36.65
2022-11-30T20:29:12.750Z,37.00
2022-11-30T20:31:42.727Z,37.59
2022-11-30T20:34:10.935Z,37.55
2022-11-30T20:36:39.002Z,37.72
2022-11-30T20:39:07.506Z,36.91
2022-11-30T20:41:35.508Z,38.36
2022-11-30T20:44:03.541Z,37.75
2022-11-30T20:46:35.144Z,37.96
2022-11-30T20:49:09.368Z,38.20
2022-11-30T20:51:37.274Z,38.84
2022-11-30T20:54:09.221Z,40.27
2022-11-30T20:56:38.677Z,39.21
2022-11-30T20:59:09.607Z,38.24
2022-11-30T21:01:37.712Z,41.39
2022-11-30T21:04:05.640Z,40.63
2022-11-30T21:06:34.143Z,43.81
2022-11-30T21:09:03.408Z,43.46
2022-11-30T21:11:31.513Z,45.55
2022-11-30T21:13:59.657Z,44.29
2022-11-30T21:16:29.605Z,44.69
2022-11-30T21:18:59.571Z,45.31
2022-11-30T21:21:33.257Z,45.27
2022-11-30T21:24:07.337Z,47.17
2022-11-30T21:26:43.203Z,45.80
2022-11-30T21:29:13.996Z,46.16
2022-11-30T21:31:43.168Z,43.84
2022-11-30T21:34:11.251Z,42.28
2022-11-30T21:36:39.366Z,39.73
2022-11-30T21:39:08.304Z,40.61
2022-11-30T21:41:38.482Z,37.52
2022-11-30T21:44:09.520Z,37.39
2022-11-30T21:46:37.589Z,35.36
2022-11-30T21:49:06.109Z,34.09
2022-11-30T21:51:33.973Z,32.67
2022-11-30T21:54:05.620Z,30.49
2022-11-30T21:56:36.483Z,29.46
2022-11-30T21:59:06.580Z,26.60
2022-11-30T22:01:39.861Z,23.46
2022-11-30T22:04:10.115Z,22.63
2022-11-30T22:06:39.670Z,21.65
2022-11-30T22:09:13.712Z,20.41
2022-11-30T22:11:43.925Z,19.01
2022-11-30T22:14:15.637Z,18.39
2022-11-30T22:16:43.866Z,17.64
2022-11-30T22:19:11.774Z,17.07
2022-11-30T22:21:41.346Z,16.77
2022-11-30T22:24:13.406Z,15.40
2022-11-30T22:26:45.428Z,15.03
2022-11-30T22:29:13.382Z,15.19
2022-11-30T22:31:43.359Z,15.22
2022-11-30T22:34:12.512Z,15.49
2022-11-30T22:36:41.999Z,14.11
2022-11-30T22:39:19.572Z,13.94
2022-11-30T22:41:54.663Z,13.95
2022-11-30T22:44:24.385Z,12.94
2022-11-30T22:46:52.344Z,12.93
2022-11-30T22:49:21.816Z,12.65
2022-11-30T22:51:50.716Z,12.51
2022-11-30T22:54:19.712Z,12.66
2022-11-30T22:56:47.827Z,12.95
2022-11-30T22:59:16.173Z,12.00
2022-11-30T23:01:46.629Z,11.93
2022-11-30T23:04:18.036Z,11.92
2022-11-30T23:06:48.351Z,12.11
2022-11-30T23:09:22.399Z,12.73
2022-11-30T23:11:50.822Z,12.28
2022-11-30T23:14:19.298Z,12.13
2022-11-30T23:16:47.350Z,12.32
2022-11-30T23:19:15.821Z,11.75
2022-11-30T23:21:48.605Z,12.29
2022-11-30T23:24:20.696Z,11.73
2022-11-30T23:26:49.273Z,11.94
2022-11-30T23:29:17.834Z,11.40
2022-11-30T23:31:47.284Z,10.83
2022-11-30T23:34:19.107Z,11.35
2022-11-30T23:36:48.665Z,13.24
2022-11-30T23:39:18.857Z,13.59
2022-11-30T23:41:47.529Z,13.64
2022-11-30T23:44:15.649Z,13.80
2022-11-30T23:46:43.697Z,14.00
2022-11-30T23:49:13.932Z,15.05
2022-11-30T23:51:42.928Z,17.92
2022-11-30T23:54:10.977Z,20.20
2022-11-30T23:56:39.461Z,20.43
2022-11-30T23:59:07.370Z,20.31
